Terminal Aerodrome Forecast
Issued by NWS

Home | Current Version | Previous Version | Graphics & Text | Print | Product List | Glossary On
Versions: 1 2 3 4 5 6 7 8 9 10 11 12 13 14 15 16
000
FTUS45 KGGW 201131
TAFOLF
TAF
KOLF 201131Z 2012/2112 26007KT P6SM FEW200
     FM210400 VRB04KT 5SM BR FEW040=

USA.gov is the U.S. government's official web portal to all federal, state and local government web resources and services.